Time;durP1;ratioP1;P1;durP2;ratioP2;P2;SDS_P1;SDS_P2;PMS_P1;PMS_P2;Temp;Humidity;BMP_temperature;BMP_pressure;BME280_temperature;BME280_humidity;BME280_pressure;Samples;Min_cycle;Max_cycle;Signal;HPM_P1;HPM_P2
2022/01/07 00:00:21;;;;;;;36.72;13.25;;;;;;;-3.16;92.56;94117.13;5009599;28;20050;-59
2022/01/07 00:02:55;;;;;;;32.05;12.23;;;;;;;-3.14;92.05;94116.78;5039985;28;20123;-59
2022/01/07 00:05:24;;;;;;;33.70;11.93;;;;;;;-3.04;91.06;94111.06;5008080;28;20050;-58
2022/01/07 00:07:51;;;;;;;29.53;10.60;;;;;;;-2.88;91.01;94116.66;5008777;28;20402;-59
2022/01/07 00:10:23;;;;;;;52.20;14.38;;;;;;;-2.97;91.11;94127.44;5009262;28;20042;-59
2022/01/07 00:12:50;;;;;;;42.47;12.93;;;;;;;-2.90;91.10;94124.25;5008074;28;20955;-59
2022/01/07 00:15:19;;;;;;;34.85;11.32;;;;;;;-2.76;90.88;94107.91;5008975;28;20060;-59
2022/01/07 00:17:46;;;;;;;34.85;12.38;;;;;;;-2.69;90.61;94110.88;5008107;28;20605;-59
2022/01/07 00:20:14;;;;;;;31.57;11.20;;;;;;;-2.90;90.49;94111.59;5009185;28;20491;-59
2022/01/07 00:22:42;;;;;;;31.35;10.73;;;;;;;-3.04;90.81;94111.06;5023415;28;20041;-59
2022/01/07 00:25:12;;;;;;;29.35;10.70;;;;;;;-3.12;91.85;94107.34;5008829;28;20042;-59
2022/01/07 00:27:39;;;;;;;29.08;10.68;;;;;;;-3.21;91.99;94112.72;5008250;28;20045;-59
2022/01/07 00:30:08;;;;;;;31.73;11.35;;;;;;;-3.12;92.47;94111.88;5006602;28;20349;-59
2022/01/07 00:32:35;;;;;;;33.77;11.67;;;;;;;-2.96;91.94;94104.84;4994558;28;20068;-59
2022/01/07 00:35:04;;;;;;;39.83;12.95;;;;;;;-3.01;91.72;94097.00;4988127;28;20038;-59
2022/01/07 00:37:30;;;;;;;43.55;13.25;;;;;;;-2.97;91.96;94089.09;5004058;28;20062;-58
2022/01/07 00:39:57;;;;;;;40.60;12.38;;;;;;;-3.15;92.15;94093.75;4989109;28;20644;-59
2022/01/07 00:42:24;;;;;;;36.38;12.18;;;;;;;-3.02;92.64;94085.47;4988943;28;20066;-59
2022/01/07 00:44:51;;;;;;;29.17;10.57;;;;;;;-2.93;92.22;94087.31;4988970;28;20042;-59
2022/01/07 00:47:18;;;;;;;39.50;13.38;;;;;;;-2.99;92.30;94075.97;5021043;28;20052;-59
2022/01/07 00:49:44;;;;;;;48.38;15.50;;;;;;;-3.03;92.42;94075.84;4988058;28;20310;-59
2022/01/07 00:52:11;;;;;;;37.58;12.80;;;;;;;-2.97;92.37;94079.13;4989295;28;20031;-59
2022/01/07 00:54:38;;;;;;;37.70;13.02;;;;;;;-2.92;92.26;94070.09;4988205;28;20108;-59
2022/01/07 00:57:05;;;;;;;28.20;9.50;;;;;;;-2.98;92.34;94074.84;4989103;28;20072;-59
2022/01/07 00:59:32;;;;;;;46.15;14.65;;;;;;;-2.95;92.81;94066.16;4988593;28;20046;-59
2022/01/07 01:01:58;;;;;;;30.02;11.73;;;;;;;-2.83;92.42;94068.91;4988728;28;20086;-59
2022/01/07 01:04:42;;;;;;;32.65;12.60;;;;;;;-2.77;92.29;94074.88;4988553;28;20096;-59
2022/01/07 01:07:08;;;;;;;31.10;11.77;;;;;;;-2.69;91.66;94071.34;5004110;28;20122;-59
2022/01/07 01:09:35;;;;;;;37.60;11.63;;;;;;;-2.62;91.10;94063.56;5007986;28;20038;-58
2022/01/07 01:12:03;;;;;;;21.67;8.25;;;;;;;-2.81;90.77;94055.94;5008543;28;20038;-58
2022/01/07 01:14:30;;;;;;;23.08;9.25;;;;;;;-2.90;91.21;94055.22;5007805;28;20056;-58
2022/01/07 01:16:59;;;;;;;26.35;9.60;;;;;;;-2.99;91.58;94059.09;5010250;28;20052;-58
2022/01/07 01:19:27;;;;;;;28.05;9.52;;;;;;;-2.95;91.39;94058.09;5012050;28;20483;-57
2022/01/07 01:21:54;;;;;;;22.73;9.10;;;;;;;-2.85;91.50;94059.63;5012009;28;20044;-59
2022/01/07 01:24:22;;;;;;;28.30;10.05;;;;;;;-2.90;91.08;94060.56;5011463;28;20045;-58
2022/01/07 01:26:49;;;;;;;26.02;9.48;;;;;;;-2.91;90.90;94059.03;5011872;28;20040;-59
2022/01/07 01:29:16;;;;;;;26.80;9.23;;;;;;;-2.83;91.18;94060.06;5011208;28;20045;-59
2022/01/07 01:31:42;;;;;;;20.85;7.63;;;;;;;-2.99;91.40;94057.19;4996831;28;20064;-59
2022/01/07 01:34:09;;;;;;;19.97;7.20;;;;;;;-3.23;90.89;94053.22;4998364;28;20048;-59
2022/01/07 01:36:36;;;;;;;29.73;10.15;;;;;;;-3.12;91.98;94056.31;5006851;28;20042;-59
2022/01/07 01:39:04;;;;;;;27.95;9.52;;;;;;;-3.08;91.69;94056.44;4992302;28;20046;-59
2022/01/07 01:41:31;;;;;;;29.27;10.65;;;;;;;-3.07;91.93;94055.34;4991837;28;20061;-58
2022/01/07 01:43:58;;;;;;;26.00;9.00;;;;;;;-2.97;91.78;94046.91;4991805;28;20231;-59
2022/01/07 01:46:25;;;;;;;25.47;9.80;;;;;;;-3.16;91.88;94047.31;4991722;28;20046;-59
2022/01/07 01:48:52;;;;;;;26.42;8.57;;;;;;;-3.15;92.62;94042.75;5023274;28;20040;-59
2022/01/07 01:51:19;;;;;;;41.67;14.98;;;;;;;-3.01;91.89;94048.66;4991829;28;20050;-55
2022/01/07 01:53:46;;;;;;;37.47;13.50;;;;;;;-2.91;91.50;94058.25;5023109;28;20048;-59
2022/01/07 01:56:12;;;;;;;26.95;9.65;;;;;;;-2.87;91.11;94057.25;5023544;28;20080;-59
2022/01/07 01:58:40;;;;;;;30.13;11.07;;;;;;;-2.80;89.87;94054.03;4992294;28;20073;-59
2022/01/07 02:01:07;;;;;;;22.23;8.75;;;;;;;-3.01;89.99;94051.34;4993229;28;20152;-59
2022/01/07 02:03:34;;;;;;;22.70;8.70;;;;;;;-2.98;90.33;94052.59;4991603;28;20054;-58
2022/01/07 02:06:01;;;;;;;20.20;8.07;;;;;;;-2.93;89.81;94049.72;4997770;28;20052;-59
2022/01/07 02:08:29;;;;;;;19.80;7.80;;;;;;;-2.90;89.28;94047.16;5010926;28;20499;-59
2022/01/07 02:10:58;;;;;;;22.23;8.23;;;;;;;-2.83;89.23;94035.91;5011079;28;20079;-59
2022/01/07 02:13:25;;;;;;;26.27;9.75;;;;;;;-2.82;88.93;94038.28;5010937;28;20046;-59
2022/01/07 02:15:52;;;;;;;29.65;10.60;;;;;;;-2.81;88.67;94028.31;5010933;28;20045;-59
2022/01/07 02:18:19;;;;;;;23.52;9.00;;;;;;;-2.71;88.88;94027.91;5009979;28;20049;-59
2022/01/07 02:20:48;;;;;;;20.20;8.40;;;;;;;-2.65;88.88;94031.97;5010092;28;20256;-59
2022/01/07 02:23:17;;;;;;;21.90;8.37;;;;;;;-2.62;88.42;94015.19;5011078;28;20050;-59
2022/01/07 02:25:45;;;;;;;23.25;9.00;;;;;;;-2.98;89.59;94018.47;5025249;28;20050;-59
2022/01/07 02:28:13;;;;;;;27.10;9.65;;;;;;;-2.84;89.42;94019.00;5010278;28;20057;-59
2022/01/07 02:30:39;;;;;;;28.45;9.85;;;;;;;-2.79;89.47;94017.25;5010582;28;20058;-59
2022/01/07 02:33:06;;;;;;;24.58;9.25;;;;;;;-2.95;89.67;94023.19;5011204;28;20057;-59
2022/01/07 02:35:35;;;;;;;23.63;8.90;;;;;;;-3.04;90.32;94020.59;4993256;28;20120;-58
2022/01/07 02:38:03;;;;;;;28.45;10.70;;;;;;;-3.04;89.67;94023.28;5010761;28;20046;-59
2022/01/07 02:40:30;;;;;;;30.45;10.55;;;;;;;-3.05;89.77;94018.22;5010470;28;20053;-59
2022/01/07 02:42:57;;;;;;;22.73;9.05;;;;;;;-3.07;90.33;94023.13;5009493;28;20046;-59
2022/01/07 02:45:24;;;;;;;21.08;8.25;;;;;;;-3.04;90.36;94025.94;5009282;28;20478;-58
2022/01/07 02:47:55;;;;;;;22.50;8.60;;;;;;;-3.03;90.13;94027.50;5010478;28;20054;-59
2022/01/07 02:50:28;;;;;;;21.83;8.10;;;;;;;-3.13;91.04;94021.75;5010118;28;20103;-58
2022/01/07 02:52:55;;;;;;;22.70;8.55;;;;;;;-3.15;90.60;94021.28;5010583;28;20045;-59
2022/01/07 02:55:24;;;;;;;18.88;6.88;;;;;;;-3.21;90.88;94021.47;5008914;28;20060;-58
2022/01/07 02:57:51;;;;;;;22.42;8.50;;;;;;;-3.27;90.53;94017.41;5010360;28;20050;-59
2022/01/07 03:00:18;;;;;;;18.33;6.70;;;;;;;-3.13;90.04;94019.06;5010814;28;20049;-59
2022/01/07 03:02:47;;;;;;;17.70;6.93;;;;;;;-3.22;89.89;94019.09;5006183;28;20044;-59
2022/01/07 03:05:15;;;;;;;20.75;9.27;;;;;;;-3.21;90.42;94026.84;5010085;28;20054;-59
2022/01/07 03:07:43;;;;;;;20.05;8.40;;;;;;;-3.13;90.17;94019.06;5008807;28;20049;-58
2022/01/07 03:10:10;;;;;;;20.50;8.52;;;;;;;-3.06;90.13;94017.44;5009001;28;20033;-60
2022/01/07 03:12:37;;;;;;;18.50;7.47;;;;;;;-3.04;89.60;94020.59;5009875;28;20072;-59
2022/01/07 03:15:05;;;;;;;18.60;7.20;;;;;;;-3.10;89.25;94018.41;5010177;28;20203;-60
2022/01/07 03:17:32;;;;;;;17.75;7.15;;;;;;;-3.10;89.17;94023.75;5010089;28;20060;-58
2022/01/07 03:19:59;;;;;;;19.15;7.38;;;;;;;-3.09;88.94;94028.03;5010193;28;20559;-60
2022/01/07 03:22:26;;;;;;;18.80;7.45;;;;;;;-2.97;89.07;94030.00;5008518;28;20041;-59
2022/01/07 03:24:52;;;;;;;18.90;7.20;;;;;;;-2.91;88.30;94029.47;5009869;28;20038;-60
2022/01/07 03:27:19;;;;;;;19.70;6.80;;;;;;;-2.93;87.84;94018.28;5009498;28;20431;-54
2022/01/07 03:29:46;;;;;;;21.23;8.05;;;;;;;-2.98;88.21;94029.22;5009839;28;20048;-59
2022/01/07 03:32:13;;;;;;;21.40;7.90;;;;;;;-2.92;88.25;94019.06;5009880;28;20153;-59
2022/01/07 03:34:39;;;;;;;19.40;7.47;;;;;;;-2.88;88.01;94014.59;5009274;28;20164;-59
2022/01/07 03:37:06;;;;;;;15.23;6.00;;;;;;;-3.02;87.58;94015.69;5009649;28;20050;-59
2022/01/07 03:39:33;;;;;;;16.13;6.22;;;;;;;-3.10;88.12;94021.09;5007986;28;20042;-59
2022/01/07 03:42:00;;;;;;;18.60;7.22;;;;;;;-3.08;88.56;94025.03;5009531;28;20445;-59
2022/01/07 03:44:27;;;;;;;18.65;7.20;;;;;;;-2.95;88.10;94017.06;5009116;28;20053;-60
2022/01/07 03:46:54;;;;;;;20.52;7.13;;;;;;;-2.88;88.14;94022.66;5007869;28;20048;-59
2022/01/07 03:49:20;;;;;;;16.23;6.60;;;;;;;-3.14;88.61;94025.53;5009083;28;20056;-59
2022/01/07 03:51:47;;;;;;;18.40;7.07;;;;;;;-3.12;88.26;94028.69;5009527;28;20072;-59
2022/01/07 03:54:14;;;;;;;16.58;6.88;;;;;;;-3.13;87.93;94027.13;5009554;28;20360;-59
2022/01/07 03:56:41;;;;;;;19.48;6.90;;;;;;;-3.12;87.69;94015.25;5007760;28;20049;-59
2022/01/07 03:59:07;;;;;;;19.13;6.53;;;;;;;-3.09;88.28;94022.66;5009119;28;20045;-59
2022/01/07 04:01:34;;;;;;;14.53;5.80;;;;;;;-3.14;88.01;94025.53;5009075;28;20056;-59
2022/01/07 04:04:01;;;;;;;24.55;9.30;;;;;;;-3.23;87.77;94028.28;4996119;28;20351;-59
2022/01/07 04:06:28;;;;;;;17.65;7.00;;;;;;;-3.23;87.96;94021.00;5006730;28;20088;-59
2022/01/07 04:08:55;;;;;;;16.60;6.80;;;;;;;-3.12;87.94;94018.75;5009012;28;20042;-60
2022/01/07 04:11:21;;;;;;;16.83;6.38;;;;;;;-3.06;87.77;94025.50;5008721;28;20053;-59
2022/01/07 04:13:48;;;;;;;20.67;6.83;;;;;;;-3.13;87.81;94024.44;5008754;28;20125;-59
2022/01/07 04:16:15;;;;;;;17.15;7.13;;;;;;;-3.10;87.25;94019.22;5009152;28;20046;-60
2022/01/07 04:18:43;;;;;;;14.57;6.03;;;;;;;-3.04;87.17;94019.78;5008869;28;20057;-59
2022/01/07 04:21:09;;;;;;;19.13;7.20;;;;;;;-3.01;87.40;94019.91;5009049;28;20060;-59
2022/01/07 04:23:37;;;;;;;22.30;7.55;;;;;;;-3.07;87.94;94010.47;5008710;28;20048;-59
2022/01/07 04:26:03;;;;;;;16.70;6.40;;;;;;;-3.09;88.12;94009.25;4998994;28;20064;-59
2022/01/07 04:28:30;;;;;;;13.88;5.80;;;;;;;-3.13;87.66;94008.31;4989017;28;20050;-59
2022/01/07 04:30:57;;;;;;;17.48;6.80;;;;;;;-3.13;87.39;94009.09;5020366;28;20034;-59
2022/01/07 04:33:30;;;;;;;15.35;6.28;;;;;;;-3.02;87.41;94021.03;4988944;28;20442;-59
2022/01/07 04:35:56;;;;;;;18.02;6.25;;;;;;;-3.00;87.29;94018.00;4989193;28;20042;-59
2022/01/07 04:38:23;;;;;;;15.30;5.87;;;;;;;-2.96;86.84;94020.84;5020284;28;20066;-59
2022/01/07 04:40:50;;;;;;;18.13;6.80;;;;;;;-2.85;86.23;94013.97;5020372;28;20048;-59
2022/01/07 04:43:17;;;;;;;14.65;6.28;;;;;;;-2.90;86.65;94006.88;4989483;28;20054;-59
2022/01/07 04:45:44;;;;;;;14.52;6.47;;;;;;;-2.89;86.49;94013.84;5019790;28;20077;-59
2022/01/07 04:48:12;;;;;;;12.80;5.40;;;;;;;-2.96;85.75;94010.88;4988862;28;20054;-59
2022/01/07 04:50:39;;;;;;;14.70;6.07;;;;;;;-3.01;86.84;94009.19;4988598;28;20066;-59
2022/01/07 04:53:07;;;;;;;14.35;5.68;;;;;;;-2.99;86.26;94014.22;4992729;28;20058;-60
2022/01/07 04:55:38;;;;;;;13.77;5.85;;;;;;;-3.00;86.91;94012.63;4991577;28;20061;-59
2022/01/07 04:58:07;;;;;;;12.27;5.18;;;;;;;-2.99;86.64;94013.44;5024176;28;20050;-60
2022/01/07 05:00:34;;;;;;;17.05;5.90;;;;;;;-3.04;86.34;94009.03;5024462;28;20372;-59
2022/01/07 05:03:02;;;;;;;15.50;6.07;;;;;;;-2.94;86.91;94019.38;5001877;28;20050;-59
2022/01/07 05:05:28;;;;;;;16.23;5.97;;;;;;;-3.03;86.58;94013.31;5012606;28;20069;-59
2022/01/07 05:07:55;;;;;;;15.25;6.20;;;;;;;-3.05;86.76;94020.91;5011632;28;20406;-60
2022/01/07 05:10:23;;;;;;;16.48;5.93;;;;;;;-3.04;87.24;94017.91;5011063;28;20046;-59
2022/01/07 05:12:50;;;;;;;13.07;5.43;;;;;;;-3.15;87.32;94015.94;5012332;28;20045;-59
2022/01/07 05:15:18;;;;;;;13.53;5.53;;;;;;;-3.17;87.43;94020.84;5012530;28;20042;-59
2022/01/07 05:17:45;;;;;;;14.57;6.38;;;;;;;-3.28;87.45;94021.22;5011788;28;20167;-59
2022/01/07 05:20:14;;;;;;;16.70;6.35;;;;;;;-3.26;87.46;94023.53;5011008;28;20060;-59
2022/01/07 05:22:41;;;;;;;14.80;6.00;;;;;;;-3.17;87.39;94021.59;5012022;28;20060;-59
2022/01/07 05:25:10;;;;;;;17.15;7.30;;;;;;;-3.16;87.40;94022.38;5012166;28;20050;-59
2022/01/07 05:27:37;;;;;;;15.73;5.80;;;;;;;-3.24;87.40;94021.31;5011594;28;20054;-59
2022/01/07 05:30:06;;;;;;;12.02;5.13;;;;;;;-3.31;86.42;94019.16;5010574;28;20049;-59
2022/01/07 05:32:33;;;;;;;12.13;4.20;;;;;;;-3.44;86.36;94034.41;5011598;28;20072;-58
2022/01/07 05:34:59;;;;;;;11.65;5.15;;;;;;;-3.40;87.14;94026.50;5011790;28;20052;-59
2022/01/07 05:37:26;;;;;;;14.10;6.07;;;;;;;-3.34;87.15;94017.16;5011715;28;20050;-58
2022/01/07 05:39:55;;;;;;;12.67;5.10;;;;;;;-3.28;86.72;94015.03;5010406;28;20065;-59
2022/01/07 05:42:23;;;;;;;12.55;5.28;;;;;;;-3.26;86.39;94010.94;5011469;28;20390;-58
2022/01/07 05:44:50;;;;;;;12.77;5.00;;;;;;;-3.29;86.42;94011.56;5011908;28;20044;-59
2022/01/07 05:47:17;;;;;;;13.15;5.07;;;;;;;-3.37;86.60;94012.41;5010463;28;20064;-59
2022/01/07 05:49:44;;;;;;;12.63;5.00;;;;;;;-3.32;86.98;94014.94;5010305;28;20403;-59
2022/01/07 05:52:10;;;;;;;18.53;7.67;;;;;;;-3.22;86.70;94001.13;5011553;28;20042;-59
2022/01/07 05:54:37;;;;;;;11.05;4.72;;;;;;;-3.33;86.61;94013.34;5011297;28;20399;-58
2022/01/07 05:57:06;;;;;;;12.07;5.10;;;;;;;-3.45;86.68;94005.97;5010101;28;20475;-59
2022/01/07 05:59:33;;;;;;;15.02;5.53;;;;;;;-3.46;87.45;94006.31;5011190;28;20057;-59
2022/01/07 06:02:01;;;;;;;12.23;4.88;;;;;;;-3.47;87.36;94000.16;5009925;28;20479;-59
2022/01/07 06:04:28;;;;;;;14.73;5.37;;;;;;;-3.48;87.49;93995.91;5009930;28;20045;-59
2022/01/07 06:06:54;;;;;;;12.55;5.07;;;;;;;-3.41;86.61;94006.13;5011356;28;20042;-59
2022/01/07 06:09:21;;;;;;;14.45;5.85;;;;;;;-3.41;86.74;93993.50;5011082;28;20072;-58
2022/01/07 06:11:48;;;;;;;15.18;5.15;;;;;;;-3.41;86.45;93995.41;5011366;28;20057;-59
2022/01/07 06:14:15;;;;;;;13.48;5.25;;;;;;;-3.35;86.91;93993.31;5010945;28;20053;-59
2022/01/07 06:16:44;;;;;;;14.00;5.63;;;;;;;-3.29;86.46;93997.38;5010636;28;20045;-59
2022/01/07 06:19:11;;;;;;;14.57;5.90;;;;;;;-3.23;86.88;93990.72;5011032;28;20099;-59
2022/01/07 06:21:38;;;;;;;18.33;7.20;;;;;;;-3.22;86.55;93998.44;5009452;28;20053;-59
2022/01/07 06:24:06;;;;;;;13.75;5.32;;;;;;;-3.24;86.50;93995.28;5010693;28;20494;-59
2022/01/07 06:26:33;;;;;;;13.68;5.70;;;;;;;-3.27;86.21;93995.94;5010758;28;20056;-58
2022/01/07 06:28:59;;;;;;;13.97;5.80;;;;;;;-3.30;86.50;93991.22;5042593;28;20081;-59
2022/01/07 06:31:26;;;;;;;15.15;6.22;;;;;;;-3.32;86.94;94001.50;5009134;28;20114;-59
2022/01/07 06:33:53;;;;;;;13.77;5.70;;;;;;;-3.18;87.09;93993.19;5011227;28;20491;-59
2022/01/07 06:36:20;;;;;;;17.25;6.15;;;;;;;-3.12;86.69;93996.47;5010219;28;20054;-58
2022/01/07 06:38:47;;;;;;;13.45;5.63;;;;;;;-3.25;86.42;93993.72;5010829;28;20681;-59
2022/01/07 06:41:13;;;;;;;15.10;5.97;;;;;;;-3.22;86.92;93993.06;5009344;28;20077;-61
2022/01/07 06:43:40;;;;;;;15.07;5.97;;;;;;;-3.24;86.89;93997.16;5010324;28;20038;-61
2022/01/07 06:46:08;;;;;;;16.10;5.40;;;;;;;-3.30;86.89;93999.28;5010470;28;20046;-61
2022/01/07 06:48:35;;;;;;;14.43;6.03;;;;;;;-3.17;86.66;93999.34;5008702;28;20410;-60
2022/01/07 06:51:01;;;;;;;14.98;6.15;;;;;;;-3.19;87.31;93998.91;5010539;28;20046;-61
2022/01/07 06:53:30;;;;;;;15.87;6.60;;;;;;;-3.10;87.32;94000.41;5041487;28;20057;-59
2022/01/07 06:55:57;;;;;;;15.70;6.32;;;;;;;-3.02;86.82;93985.34;5010680;28;20052;-59
2022/01/07 06:58:24;;;;;;;15.88;6.60;;;;;;;-3.10;86.50;93992.38;5009990;28;20046;-58
2022/01/07 07:00:52;;;;;;;18.65;7.38;;;;;;;-3.16;87.32;93992.88;5007721;28;20042;-59
2022/01/07 07:03:19;;;;;;;18.55;7.32;;;;;;;-3.19;87.46;93990.84;4999540;28;20046;-55
2022/01/07 07:05:46;;;;;;;15.23;6.20;;;;;;;-3.09;87.19;93995.81;5010988;28;20042;-59
2022/01/07 07:08:13;;;;;;;14.32;6.47;;;;;;;-3.17;87.21;93988.63;5008687;28;20042;-59
2022/01/07 07:10:40;;;;;;;16.95;7.82;;;;;;;-3.19;87.26;93988.94;5010081;28;20050;-58
2022/01/07 07:13:06;;;;;;;17.02;6.60;;;;;;;-3.19;87.26;93994.31;5009558;28;20053;-59
2022/01/07 07:15:33;;;;;;;17.83;7.35;;;;;;;-3.17;87.40;93994.78;5008983;28;20053;-58
2022/01/07 07:18:00;;;;;;;18.53;6.40;;;;;;;-3.14;86.77;93999.50;5010049;28;20045;-59
2022/01/07 07:20:27;;;;;;;24.30;10.43;;;;;;;-3.05;87.24;94002.13;5009875;28;20056;-59
2022/01/07 07:22:54;;;;;;;23.23;9.48;;;;;;;-3.11;87.45;93993.47;5010184;28;20060;-59
2022/01/07 07:25:23;;;;;;;42.45;19.52;;;;;;;-3.10;87.75;93988.88;5007918;28;20060;-58
2022/01/07 07:27:50;;;;;;;23.45;10.02;;;;;;;-3.05;87.68;93983.31;5008718;28;20495;-59
2022/01/07 07:30:18;;;;;;;79.03;29.03;;;;;;;-3.05;86.80;93983.31;5024566;28;20153;-59
2022/01/07 07:32:44;;;;;;;54.45;20.42;;;;;;;-3.09;87.27;93979.72;5008697;28;20783;-59
2022/01/07 07:37:48;;;;;;;83.90;31.52;;;;;;;-2.99;87.22;93992.75;5009062;28;20353;-59
2022/01/07 07:40:18;;;;;;;41.70;16.48;;;;;;;-2.91;87.05;93999.16;5009635;28;20061;-59
2022/01/07 07:42:45;;;;;;;48.20;18.20;;;;;;;-2.87;86.32;93987.44;5009619;28;20041;-59
2022/01/07 07:45:13;;;;;;;85.95;30.98;;;;;;;-2.89;86.56;93986.19;5009502;28;20049;-59
2022/01/07 07:47:41;;;;;;;94.05;35.58;;;;;;;-2.82;85.89;93983.75;5009066;28;20049;-59
2022/01/07 07:50:13;;;;;;;33.78;13.07;;;;;;;-2.71;85.72;93976.88;5008317;28;20057;-59
2022/01/07 07:52:40;;;;;;;98.57;40.00;;;;;;;-2.71;85.69;93968.81;5009019;28;20079;-58
2022/01/07 07:55:07;;;;;;;27.30;11.00;;;;;;;-2.78;86.21;93962.41;5024248;28;20479;-59
2022/01/07 07:57:34;;;;;;;27.15;8.73;;;;;;;-2.82;86.34;93957.72;5008639;28;20049;-58
2022/01/07 08:00:03;;;;;;;19.25;7.63;;;;;;;-2.81;86.27;93955.78;5008096;28;20042;-59
2022/01/07 08:02:30;;;;;;;26.42;9.30;;;;;;;-2.72;86.03;93961.84;5008887;28;20057;-58
2022/01/07 08:04:57;;;;;;;19.38;8.35;;;;;;;-2.59;85.83;93959.25;5009545;28;20060;-59
2022/01/07 08:07:24;;;;;;;97.97;41.03;;;;;;;-2.48;85.35;93950.41;5007116;28;20049;-58
2022/01/07 08:09:53;;;;;;;28.77;10.75;;;;;;;-2.35;84.60;93955.84;5007978;28;20056;-59
2022/01/07 08:12:29;;;;;;;27.75;10.50;;;;;;;-2.28;84.06;93954.16;5008328;28;20103;-54
2022/01/07 08:17:41;;;;;;;28.10;9.48;;;;;;;-2.39;84.84;93941.47;5005574;28;20050;-59
2022/01/07 08:20:08;;;;;;;23.03;10.47;;;;;;;-2.39;84.72;93931.53;4999060;28;20045;-59
2022/01/07 08:22:36;;;;;;;33.97;13.23;;;;;;;-2.39;85.16;93925.34;5004564;28;20053;-59
2022/01/07 08:25:03;;;;;;;31.52;14.85;;;;;;;-2.39;85.25;93922.66;5003528;28;20046;-59
2022/01/07 08:27:30;;;;;;;23.73;9.38;;;;;;;-2.21;84.89;93926.75;5003420;28;20065;-59
2022/01/07 08:30:13;;;;;;;18.63;7.45;;;;;;;-2.15;84.64;93930.78;5002953;28;20057;-59
2022/01/07 08:35:27;;;;;;;19.10;7.80;;;;;;;-2.26;84.86;93926.94;5003988;28;20479;-59
2022/01/07 08:37:54;;;;;;;30.63;10.75;;;;;;;-2.28;85.03;93929.19;5004664;28;20054;-59
2022/01/07 08:40:21;;;;;;;26.90;11.35;;;;;;;-2.10;84.53;93933.22;5002008;28;20104;-59
2022/01/07 08:42:48;;;;;;;23.58;10.05;;;;;;;-1.95;83.94;93923.72;5002667;28;20053;-60
2022/01/07 08:45:15;;;;;;;27.00;10.27;;;;;;;-2.05;83.81;93919.59;5019160;28;20056;-60
2022/01/07 08:47:41;;;;;;;23.00;9.57;;;;;;;-2.05;84.38;93924.19;5003570;28;20042;-59
2022/01/07 08:50:08;;;;;;;27.65;10.90;;;;;;;-1.91;83.14;93911.19;5003280;28;20056;-59
2022/01/07 08:52:35;;;;;;;30.23;11.75;;;;;;;-1.88;83.34;93920.47;5003828;28;20341;-59
2022/01/07 08:55:02;;;;;;;29.55;10.93;;;;;;;-1.94;83.37;93922.59;5003775;28;20038;-60
2022/01/07 08:57:29;;;;;;;26.03;9.70;;;;;;;-1.91;83.77;93913.06;5003755;28;20058;-60
2022/01/07 08:59:56;;;;;;;16.48;7.13;;;;;;;-2.03;84.14;93911.97;5003985;28;20042;-60
2022/01/07 09:02:23;;;;;;;27.30;10.07;;;;;;;-1.92;84.01;93914.97;5003227;28;20038;-60
2022/01/07 09:04:50;;;;;;;27.17;10.43;;;;;;;-1.89;84.32;93917.00;5002898;28;20073;-60
2022/01/07 09:07:16;;;;;;;27.92;11.73;;;;;;;-1.94;84.21;93924.50;4995827;28;20064;-60
2022/01/07 09:09:43;;;;;;;19.17;8.77;;;;;;;-1.84;83.60;93918.69;4983446;28;20513;-62
2022/01/07 09:12:11;;;;;;;19.80;7.65;;;;;;;-1.84;82.97;93919.47;4984417;28;20076;-61
2022/01/07 09:14:38;;;;;;;20.63;8.90;;;;;;;-1.82;83.48;93919.13;4984220;28;20058;-60
2022/01/07 09:17:06;;;;;;;21.58;9.20;;;;;;;-1.89;83.32;93916.19;4988722;28;20042;-60
2022/01/07 09:19:33;;;;;;;20.40;8.73;;;;;;;-1.85;83.02;93923.28;4984630;28;20054;-60
2022/01/07 09:21:59;;;;;;;20.67;8.77;;;;;;;-1.76;82.44;93919.69;5015714;28;20047;-60
2022/01/07 09:24:27;;;;;;;22.05;9.02;;;;;;;-1.70;82.16;93927.19;5014051;28;20050;-61
2022/01/07 09:26:54;;;;;;;17.42;7.78;;;;;;;-1.72;81.81;93928.66;5019760;28;20121;-60
2022/01/07 09:29:23;;;;;;;16.23;6.60;;;;;;;-1.83;81.71;93923.72;5000898;28;20085;-60
2022/01/07 09:31:51;;;;;;;12.38;5.80;;;;;;;-1.78;80.44;93928.09;5004128;28;20744;-60
2022/01/07 09:34:18;;;;;;;18.13;6.80;;;;;;;-1.62;80.88;93923.59;4996807;28;20061;-59
2022/01/07 09:36:54;;;;;;;14.70;6.43;;;;;;;-1.35;79.81;93929.38;5002474;28;20869;-60
2022/01/07 09:39:21;;;;;;;16.00;6.63;;;;;;;-1.10;78.99;93927.44;5006119;28;20060;-60
2022/01/07 09:41:48;;;;;;;14.93;6.60;;;;;;;-0.96;77.70;93926.28;5007654;28;20054;-61
2022/01/07 09:44:15;;;;;;;14.77;6.65;;;;;;;-1.06;78.16;93925.63;5007348;28;20068;-61
2022/01/07 09:46:41;;;;;;;14.53;6.70;;;;;;;-0.93;78.06;93926.34;4990192;28;20050;-60
2022/01/07 09:49:08;;;;;;;15.13;7.20;;;;;;;-1.18;78.68;93922.19;4991839;28;20065;-61
2022/01/07 09:51:39;;;;;;;17.70;7.32;;;;;;;-1.27;78.68;93928.50;4991478;28;20042;-60
2022/01/07 09:54:07;;;;;;;15.52;6.88;;;;;;;-1.32;78.65;93923.34;4990853;28;20042;-60
2022/01/07 09:56:35;;;;;;;15.13;6.97;;;;;;;-1.00;78.23;93923.47;4991423;28;20046;-60
2022/01/07 09:59:05;;;;;;;15.30;6.83;;;;;;;-1.15;78.75;93921.50;4991866;28;20050;-60
2022/01/07 10:01:53;;;;;;;14.02;6.22;;;;;;;-1.27;78.78;93917.72;4991613;28;20048;-60
2022/01/07 10:04:28;;;;;;;15.27;6.40;;;;;;;-1.16;78.20;93918.03;4991564;28;20046;-57
2022/01/07 10:07:25;;;;;;;17.02;7.18;;;;;;;-1.29;79.09;93895.75;5005180;28;20087;-60
2022/01/07 10:10:03;;;;;;;15.65;7.43;;;;;;;-1.31;79.25;93887.22;4990460;28;20219;-60
2022/01/07 10:12:48;;;;;;;14.73;6.87;;;;;;;-1.50;79.85;93901.28;5021977;28;20192;-60
2022/01/07 10:15:23;;;;;;;15.18;6.70;;;;;;;-1.52;80.25;93884.69;4991585;28;20042;-60
2022/01/07 10:18:16;;;;;;;16.98;7.10;;;;;;;-1.39;80.22;93873.88;4990944;28;20590;-60
2022/01/07 10:20:48;;;;;;;11.73;5.68;;;;;;;-1.43;79.39;93881.84;4991741;28;20050;-60
2022/01/07 10:23:24;;;;;;;16.40;7.07;;;;;;;-1.31;79.62;93879.16;4991279;28;20069;-60
2022/01/07 10:25:56;;;;;;;10.07;4.80;;;;;;;-1.37;79.56;93879.72;4989225;28;21816;-60
2022/01/07 10:28:34;;;;;;;14.38;6.68;;;;;;;-1.21;79.54;93875.16;4993706;28;20038;-59
2022/01/07 10:31:02;;;;;;;14.10;7.13;;;;;;;-1.04;78.48;93868.72;5008772;28;20479;-60
2022/01/07 10:33:40;;;;;;;14.52;7.03;;;;;;;-0.89;78.65;93867.97;5010138;28;20050;-60
2022/01/07 10:36:07;;;;;;;15.75;6.55;;;;;;;-0.84;77.83;93866.97;5011271;28;20151;-60
2022/01/07 10:38:36;;;;;;;16.27;6.73;;;;;;;-0.91;77.63;93867.53;5010342;28;20529;-60
2022/01/07 10:41:03;;;;;;;12.30;5.47;;;;;;;-1.10;78.63;93865.50;5010802;28;20383;-60
2022/01/07 10:43:34;;;;;;;13.82;6.47;;;;;;;-1.44;80.36;93867.63;5010012;28;20042;-60
2022/01/07 10:46:12;;;;;;;14.82;7.03;;;;;;;-1.44;80.57;93867.63;5010814;28;20042;-63
2022/01/07 10:48:51;;;;;;;15.63;7.13;;;;;;;-1.53;80.63;93860.78;5011186;28;20499;-61
2022/01/07 10:51:22;;;;;;;12.77;6.33;;;;;;;-1.43;80.93;93861.13;5010716;28;20046;-60
2022/01/07 10:53:54;;;;;;;14.77;5.93;;;;;;;-1.44;80.97;93861.44;5008547;28;20769;-60
2022/01/07 10:56:52;;;;;;;15.45;6.53;;;;;;;-1.41;80.77;93858.06;5009805;28;20057;-59
2022/01/07 10:59:20;;;;;;;13.60;6.18;;;;;;;-1.36;80.71;93862.44;5010252;28;20061;-60
2022/01/07 11:01:49;;;;;;;14.85;6.55;;;;;;;-1.50;81.27;93862.81;5009465;28;20763;-60
2022/01/07 11:04:21;;;;;;;11.83;5.67;;;;;;;-1.47;81.48;93859.44;5010347;28;20049;-61
2022/01/07 11:06:51;;;;;;;12.93;5.63;;;;;;;-1.39;81.29;93852.34;5009746;28;20042;-60
2022/01/07 11:09:19;;;;;;;14.07;6.18;;;;;;;-1.42;81.57;93861.91;5009107;28;20450;-60
2022/01/07 11:11:54;;;;;;;15.23;6.28;;;;;;;-1.43;81.21;93844.97;5009308;28;20088;-60
2022/01/07 11:14:24;;;;;;;12.77;5.93;;;;;;;-1.40;81.65;93862.34;5009259;28;20057;-59
2022/01/07 11:16:53;;;;;;;13.47;5.77;;;;;;;-1.29;81.02;93860.75;5009091;28;20056;-60
2022/01/07 11:19:23;;;;;;;14.98;6.95;;;;;;;-1.27;81.01;93866.56;5009549;28;20058;-59
2022/01/07 11:21:52;;;;;;;12.70;5.88;;;;;;;-1.13;80.72;93860.00;5010328;28;20116;-60
2022/01/07 11:24:35;;;;;;;34.20;11.27;;;;;;;-1.08;80.68;93847.06;5010157;28;20052;-61
2022/01/07 11:27:17;;;;;;;13.45;6.68;;;;;;;-1.20;80.41;93849.81;5009152;28;20760;-61
2022/01/07 11:29:49;;;;;;;14.40;6.77;;;;;;;-0.97;79.83;93847.34;5009652;28;20076;-61
2022/01/07 11:32:25;;;;;;;16.80;6.88;;;;;;;-0.82;79.24;93851.22;5009754;28;20058;-62
2022/01/07 11:34:57;;;;;;;20.70;9.38;;;;;;;-0.89;79.93;93845.66;5007972;28;20034;-60
2022/01/07 11:37:36;;;;;;;18.42;6.60;;;;;;;-1.11;79.91;93836.97;5009383;28;20057;-60